Capitol Logistics 238




TJSJ
Luis Munoz Marin International Airport
San Juan, PR
KMIA
Miami International Airport
Miami, US

Activity Log

Date Flight Route Aircraft Duration
04/17/2021 CPX2140 ACONY3 PALDE FEKKO Y308 FOWEE FLIPR7 B763 2h 50m
10/12/2019 CPX238 ACONY3 PALDE FEKKO Y308 FOWEE FLIPR6 B763 2h 48m
06/19/2019 CPX238 ACONY3 PALDE FEKKO Y308 FOWEE FLIPR6 B763 2h 33m
06/06/2019 CPX238 ACONY3 PALDE FEKKO Y308 FOWEE FLIPR6 B763 2h 20m
04/06/2019 CPX238 ACONY3 PALDE FEKKO Y308 FOWEE FLIPR6 B763 2h 50m
02/17/2019 CPX238 ACONY3 PALDE FEKKO Y308 FOWEE FLIPR6 B763 2h 41m

Route Details

Aircraft Information
Primary: Boeing 767-300BDSF
Backup: Airbus A300-600F
Route Data
Distance: 909nm
Duration: 2h 25m
Recm'd Route: ACONY3 PALDE FEKKO Y308 FOWEE FLIPR6
Origin Wx: TJSJ 020656Z 20003KT 10SM FEW023 27/23 A3005 RMK AO2 SLP172 T02670233
Dest. Wx: KMIA 020653Z 22004KT 10SM FEW027 FEW090 FEW250 28/25 A3006 RMK AO2 SLP178 OCNL LTGIC DSNT NE-SE CB DSNT NE-SE MOV N T02830250 $
Notes: